sensor_id;sensor_type;location;lat;lon;timestamp;P1;durP1;ratioP1;P2;durP2;ratioP2
11139;SDS011;5624;49.388;11.350;2022-12-11T00:01:09;24.23;;;14.40;;
11139;SDS011;5624;49.388;11.350;2022-12-11T00:03:36;26.60;;;19.20;;
11139;SDS011;5624;49.388;11.350;2022-12-11T00:06:09;29.03;;;19.30;;
11139;SDS011;5624;49.388;11.350;2022-12-11T00:08:36;33.13;;;16.07;;
11139;SDS011;5624;49.388;11.350;2022-12-11T00:11:03;27.13;;;15.63;;
11139;SDS011;5624;49.388;11.350;2022-12-11T00:13:28;25.97;;;15.53;;
11139;SDS011;5624;49.388;11.350;2022-12-11T00:15:56;25.83;;;15.57;;
11139;SDS011;5624;49.388;11.350;2022-12-11T00:18:22;27.43;;;15.20;;
11139;SDS011;5624;49.388;11.350;2022-12-11T00:20:48;30.30;;;20.33;;
11139;SDS011;5624;49.388;11.350;2022-12-11T00:23:14;32.00;;;20.80;;
11139;SDS011;5624;49.388;11.350;2022-12-11T00:25:43;31.17;;;21.10;;
11139;SDS011;5624;49.388;11.350;2022-12-11T00:28:11;26.33;;;18.80;;
11139;SDS011;5624;49.388;11.350;2022-12-11T00:30:39;26.43;;;19.03;;
11139;SDS011;5624;49.388;11.350;2022-12-11T00:33:06;30.87;;;15.57;;
11139;SDS011;5624;49.388;11.350;2022-12-11T00:35:32;27.90;;;19.90;;
11139;SDS011;5624;49.388;11.350;2022-12-11T00:37:58;29.70;;;19.73;;
11139;SDS011;5624;49.388;11.350;2022-12-11T00:40:24;27.53;;;18.47;;
11139;SDS011;5624;49.388;11.350;2022-12-11T00:42:49;28.37;;;16.13;;
11139;SDS011;5624;49.388;11.350;2022-12-11T00:45:15;26.37;;;14.53;;
11139;SDS011;5624;49.388;11.350;2022-12-11T00:47:40;28.83;;;19.30;;
11139;SDS011;5624;49.388;11.350;2022-12-11T00:50:06;27.47;;;20.40;;
11139;SDS011;5624;49.388;11.350;2022-12-11T00:52:32;24.27;;;14.90;;
11139;SDS011;5624;49.388;11.350;2022-12-11T00:54:58;29.30;;;19.40;;
11139;SDS011;5624;49.388;11.350;2022-12-11T00:57:24;24.60;;;14.93;;
11139;SDS011;5624;49.388;11.350;2022-12-11T00:59:50;25.03;;;14.40;;
11139;SDS011;5624;49.388;11.350;2022-12-11T01:02:15;24.60;;;14.57;;
11139;SDS011;5624;49.388;11.350;2022-12-11T01:04:41;25.17;;;15.33;;
11139;SDS011;5624;49.388;11.350;2022-12-11T01:07:06;25.37;;;15.07;;
11139;SDS011;5624;49.388;11.350;2022-12-11T01:09:32;19.87;;;13.80;;
11139;SDS011;5624;49.388;11.350;2022-12-11T01:12:16;26.17;;;14.57;;
11139;SDS011;5624;49.388;11.350;2022-12-11T01:14:42;23.83;;;13.63;;
11139;SDS011;5624;49.388;11.350;2022-12-11T01:17:07;29.37;;;15.67;;
11139;SDS011;5624;49.388;11.350;2022-12-11T01:19:33;26.83;;;14.33;;
11139;SDS011;5624;49.388;11.350;2022-12-11T01:21:59;27.23;;;15.53;;
11139;SDS011;5624;49.388;11.350;2022-12-11T01:24:24;27.47;;;15.23;;
11139;SDS011;5624;49.388;11.350;2022-12-11T01:26:50;24.13;;;14.57;;
11139;SDS011;5624;49.388;11.350;2022-12-11T01:29:16;25.63;;;14.77;;
11139;SDS011;5624;49.388;11.350;2022-12-11T01:31:41;28.27;;;15.50;;
11139;SDS011;5624;49.388;11.350;2022-12-11T01:34:07;26.43;;;13.93;;
11139;SDS011;5624;49.388;11.350;2022-12-11T01:36:32;23.33;;;14.63;;
11139;SDS011;5624;49.388;11.350;2022-12-11T01:38:58;21.83;;;14.33;;
11139;SDS011;5624;49.388;11.350;2022-12-11T01:41:23;25.57;;;14.30;;
11139;SDS011;5624;49.388;11.350;2022-12-11T01:44:06;24.33;;;14.30;;
11139;SDS011;5624;49.388;11.350;2022-12-11T01:46:52;23.23;;;13.03;;
11139;SDS011;5624;49.388;11.350;2022-12-11T01:49:19;25.93;;;14.37;;
11139;SDS011;5624;49.388;11.350;2022-12-11T01:52:10;23.90;;;15.03;;
11139;SDS011;5624;49.388;11.350;2022-12-11T01:54:36;24.17;;;14.83;;
11139;SDS011;5624;49.388;11.350;2022-12-11T01:57:04;23.10;;;13.70;;
11139;SDS011;5624;49.388;11.350;2022-12-11T01:59:33;25.30;;;17.60;;
11139;SDS011;5624;49.388;11.350;2022-12-11T02:04:29;25.63;;;13.93;;
11139;SDS011;5624;49.388;11.350;2022-12-11T02:06:56;29.53;;;19.90;;
11139;SDS011;5624;49.388;11.350;2022-12-11T02:09:23;27.00;;;18.90;;
11139;SDS011;5624;49.388;11.350;2022-12-11T02:11:54;25.97;;;17.93;;
11139;SDS011;5624;49.388;11.350;2022-12-11T02:14:27;24.77;;;17.87;;
11139;SDS011;5624;49.388;11.350;2022-12-11T02:17:21;25.20;;;18.30;;
11139;SDS011;5624;49.388;11.350;2022-12-11T02:25:04;28.77;;;18.90;;
11139;SDS011;5624;49.388;11.350;2022-12-11T02:33:53;28.87;;;20.70;;
11139;SDS011;5624;49.388;11.350;2022-12-11T02:36:23;29.57;;;20.57;;
11139;SDS011;5624;49.388;11.350;2022-12-11T02:38:52;27.70;;;19.27;;
11139;SDS011;5624;49.388;11.350;2022-12-11T02:41:20;27.30;;;19.13;;
11139;SDS011;5624;49.388;11.350;2022-12-11T02:43:48;27.63;;;14.83;;
11139;SDS011;5624;49.388;11.350;2022-12-11T02:46:16;28.47;;;15.10;;
11139;SDS011;5624;49.388;11.350;2022-12-11T02:48:44;26.97;;;13.93;;
11139;SDS011;5624;49.388;11.350;2022-12-11T02:51:14;25.20;;;13.53;;
11139;SDS011;5624;49.388;11.350;2022-12-11T02:53:42;26.07;;;15.13;;
11139;SDS011;5624;49.388;11.350;2022-12-11T02:56:10;29.47;;;20.37;;
11139;SDS011;5624;49.388;11.350;2022-12-11T02:58:53;27.10;;;19.60;;
11139;SDS011;5624;49.388;11.350;2022-12-11T03:01:24;29.20;;;19.60;;
11139;SDS011;5624;49.388;11.350;2022-12-11T03:03:50;27.60;;;18.83;;
11139;SDS011;5624;49.388;11.350;2022-12-11T03:06:17;26.90;;;19.80;;
11139;SDS011;5624;49.388;11.350;2022-12-11T03:08:46;28.40;;;20.27;;
11139;SDS011;5624;49.388;11.350;2022-12-11T03:11:15;27.73;;;19.87;;
11139;SDS011;5624;49.388;11.350;2022-12-11T03:13:41;30.83;;;20.27;;
11139;SDS011;5624;49.388;11.350;2022-12-11T03:24:36;28.50;;;20.17;;
11139;SDS011;5624;49.388;11.350;2022-12-11T03:26:56;29.80;;;20.10;;
11139;SDS011;5624;49.388;11.350;2022-12-11T03:29:28;31.80;;;20.70;;
11139;SDS011;5624;49.388;11.350;2022-12-11T03:32:03;31.47;;;21.50;;
11139;SDS011;5624;49.388;11.350;2022-12-11T03:35:19;27.50;;;18.13;;
11139;SDS011;5624;49.388;11.350;2022-12-11T03:37:32;32.20;;;21.30;;
11139;SDS011;5624;49.388;11.350;2022-12-11T03:40:02;26.97;;;18.47;;
11139;SDS011;5624;49.388;11.350;2022-12-11T03:42:34;26.33;;;18.80;;
11139;SDS011;5624;49.388;11.350;2022-12-11T03:45:02;27.60;;;18.87;;
11139;SDS011;5624;49.388;11.350;2022-12-11T03:47:30;28.83;;;19.67;;
11139;SDS011;5624;49.388;11.350;2022-12-11T03:49:57;28.93;;;19.87;;
11139;SDS011;5624;49.388;11.350;2022-12-11T03:52:26;28.47;;;20.57;;
11139;SDS011;5624;49.388;11.350;2022-12-11T03:54:53;26.13;;;18.33;;
11139;SDS011;5624;49.388;11.350;2022-12-11T03:57:24;27.00;;;19.23;;
11139;SDS011;5624;49.388;11.350;2022-12-11T03:59:55;33.20;;;20.33;;
11139;SDS011;5624;49.388;11.350;2022-12-11T04:02:21;30.73;;;20.67;;
11139;SDS011;5624;49.388;11.350;2022-12-11T04:04:47;26.60;;;19.73;;
11139;SDS011;5624;49.388;11.350;2022-12-11T04:07:12;28.80;;;19.27;;
11139;SDS011;5624;49.388;11.350;2022-12-11T04:09:38;26.37;;;18.40;;
11139;SDS011;5624;49.388;11.350;2022-12-11T04:12:04;23.30;;;13.07;;
11139;SDS011;5624;49.388;11.350;2022-12-11T04:14:29;24.53;;;13.63;;
11139;SDS011;5624;49.388;11.350;2022-12-11T04:17:14;21.93;;;12.07;;
11139;SDS011;5624;49.388;11.350;2022-12-11T04:19:59;23.17;;;12.90;;
11139;SDS011;5624;49.388;11.350;2022-12-11T04:22:44;23.33;;;16.87;;
11139;SDS011;5624;49.388;11.350;2022-12-11T04:25:28;27.83;;;18.77;;
11139;SDS011;5624;49.388;11.350;2022-12-11T04:27:53;29.17;;;15.70;;
11139;SDS011;5624;49.388;11.350;2022-12-11T04:30:20;22.60;;;13.67;;
11139;SDS011;5624;49.388;11.350;2022-12-11T04:32:48;20.07;;;12.27;;
11139;SDS011;5624;49.388;11.350;2022-12-11T04:35:14;23.00;;;13.60;;
11139;SDS011;5624;49.388;11.350;2022-12-11T04:37:40;28.30;;;14.73;;
11139;SDS011;5624;49.388;11.350;2022-12-11T04:40:07;24.23;;;15.13;;
11139;SDS011;5624;49.388;11.350;2022-12-11T04:42:35;23.33;;;13.20;;
11139;SDS011;5624;49.388;11.350;2022-12-11T04:45:00;21.60;;;13.10;;
11139;SDS011;5624;49.388;11.350;2022-12-11T04:47:26;25.03;;;13.10;;
11139;SDS011;5624;49.388;11.350;2022-12-11T04:49:53;24.80;;;18.27;;
11139;SDS011;5624;49.388;11.350;2022-12-11T04:52:18;29.47;;;19.13;;
11139;SDS011;5624;49.388;11.350;2022-12-11T04:54:44;24.50;;;14.27;;
11139;SDS011;5624;49.388;11.350;2022-12-11T04:57:09;24.07;;;14.00;;
11139;SDS011;5624;49.388;11.350;2022-12-11T04:59:35;25.17;;;16.33;;
11139;SDS011;5624;49.388;11.350;2022-12-11T05:02:01;27.97;;;18.60;;
11139;SDS011;5624;49.388;11.350;2022-12-11T05:04:33;21.83;;;13.67;;
11139;SDS011;5624;49.388;11.350;2022-12-11T05:06:59;24.07;;;17.00;;
11139;SDS011;5624;49.388;11.350;2022-12-11T05:09:25;24.23;;;17.67;;
11139;SDS011;5624;49.388;11.350;2022-12-11T05:11:51;24.43;;;16.77;;
11139;SDS011;5624;49.388;11.350;2022-12-11T05:14:17;25.07;;;17.90;;
11139;SDS011;5624;49.388;11.350;2022-12-11T05:16:43;25.73;;;18.43;;
11139;SDS011;5624;49.388;11.350;2022-12-11T05:19:09;19.90;;;13.40;;
11139;SDS011;5624;49.388;11.350;2022-12-11T05:21:34;22.50;;;13.27;;
11139;SDS011;5624;49.388;11.350;2022-12-11T05:24:00;21.70;;;12.73;;
11139;SDS011;5624;49.388;11.350;2022-12-11T05:26:26;24.37;;;14.63;;
11139;SDS011;5624;49.388;11.350;2022-12-11T05:28:52;26.10;;;14.07;;
11139;SDS011;5624;49.388;11.350;2022-12-11T05:31:19;24.37;;;18.33;;
11139;SDS011;5624;49.388;11.350;2022-12-11T05:33:47;28.07;;;19.53;;
11139;SDS011;5624;49.388;11.350;2022-12-11T05:36:18;29.53;;;19.37;;
11139;SDS011;5624;49.388;11.350;2022-12-11T05:38:46;27.37;;;14.67;;
11139;SDS011;5624;49.388;11.350;2022-12-11T05:41:15;25.30;;;15.30;;
11139;SDS011;5624;49.388;11.350;2022-12-11T05:43:43;29.67;;;15.07;;
11139;SDS011;5624;49.388;11.350;2022-12-11T05:48:39;26.90;;;19.70;;
11139;SDS011;5624;49.388;11.350;2022-12-11T05:51:05;29.90;;;20.27;;
11139;SDS011;5624;49.388;11.350;2022-12-11T05:53:32;26.37;;;19.17;;
11139;SDS011;5624;49.388;11.350;2022-12-11T05:56:03;27.37;;;15.20;;
11139;SDS011;5624;49.388;11.350;2022-12-11T05:58:31;26.20;;;15.83;;
11139;SDS011;5624;49.388;11.350;2022-12-11T06:00:57;22.37;;;13.10;;
11139;SDS011;5624;49.388;11.350;2022-12-11T06:03:24;25.50;;;19.33;;
11139;SDS011;5624;49.388;11.350;2022-12-11T06:05:49;30.43;;;19.87;;
11139;SDS011;5624;49.388;11.350;2022-12-11T06:08:15;26.70;;;20.07;;
11139;SDS011;5624;49.388;11.350;2022-12-11T06:10:48;26.13;;;18.70;;
11139;SDS011;5624;49.388;11.350;2022-12-11T06:13:14;26.43;;;19.90;;
11139;SDS011;5624;49.388;11.350;2022-12-11T06:15:40;26.77;;;15.70;;
11139;SDS011;5624;49.388;11.350;2022-12-11T06:18:06;25.63;;;18.80;;
11139;SDS011;5624;49.388;11.350;2022-12-11T06:20:33;28.00;;;15.70;;
11139;SDS011;5624;49.388;11.350;2022-12-11T06:22:59;29.70;;;14.23;;
11139;SDS011;5624;49.388;11.350;2022-12-11T06:25:25;24.40;;;14.33;;
11139;SDS011;5624;49.388;11.350;2022-12-11T06:27:51;24.60;;;13.37;;
11139;SDS011;5624;49.388;11.350;2022-12-11T06:30:17;25.23;;;14.80;;
11139;SDS011;5624;49.388;11.350;2022-12-11T06:32:43;27.47;;;15.17;;
11139;SDS011;5624;49.388;11.350;2022-12-11T06:35:09;25.53;;;18.47;;
11139;SDS011;5624;49.388;11.350;2022-12-11T06:37:35;27.40;;;19.03;;
11139;SDS011;5624;49.388;11.350;2022-12-11T06:40:02;23.87;;;14.80;;
11139;SDS011;5624;49.388;11.350;2022-12-11T06:42:29;24.80;;;14.83;;
11139;SDS011;5624;49.388;11.350;2022-12-11T06:44:55;22.77;;;13.13;;
11139;SDS011;5624;49.388;11.350;2022-12-11T06:47:24;25.70;;;12.87;;
11139;SDS011;5624;49.388;11.350;2022-12-11T06:49:50;21.33;;;11.37;;
11139;SDS011;5624;49.388;11.350;2022-12-11T06:52:16;15.83;;;10.23;;
11139;SDS011;5624;49.388;11.350;2022-12-11T06:54:42;23.77;;;15.30;;
11139;SDS011;5624;49.388;11.350;2022-12-11T06:57:08;21.70;;;16.37;;
11139;SDS011;5624;49.388;11.350;2022-12-11T06:59:34;23.67;;;14.87;;
11139;SDS011;5624;49.388;11.350;2022-12-11T07:01:59;23.37;;;16.03;;
11139;SDS011;5624;49.388;11.350;2022-12-11T07:04:25;23.27;;;15.37;;
11139;SDS011;5624;49.388;11.350;2022-12-11T07:06:52;18.93;;;14.67;;
11139;SDS011;5624;49.388;11.350;2022-12-11T07:09:18;21.00;;;16.10;;
11139;SDS011;5624;49.388;11.350;2022-12-11T07:11:43;22.93;;;15.63;;
11139;SDS011;5624;49.388;11.350;2022-12-11T07:14:09;21.03;;;15.57;;
11139;SDS011;5624;49.388;11.350;2022-12-11T07:16:35;22.67;;;12.67;;
11139;SDS011;5624;49.388;11.350;2022-12-11T07:19:01;20.67;;;12.60;;
11139;SDS011;5624;49.388;11.350;2022-12-11T07:21:26;20.87;;;12.10;;
11139;SDS011;5624;49.388;11.350;2022-12-11T07:23:52;23.67;;;13.80;;
11139;SDS011;5624;49.388;11.350;2022-12-11T07:26:19;23.87;;;12.77;;
11139;SDS011;5624;49.388;11.350;2022-12-11T07:28:46;24.80;;;14.43;;
11139;SDS011;5624;49.388;11.350;2022-12-11T07:31:16;19.10;;;11.93;;
11139;SDS011;5624;49.388;11.350;2022-12-11T07:33:51;22.53;;;13.47;;
11139;SDS011;5624;49.388;11.350;2022-12-11T07:36:21;22.43;;;12.83;;
11139;SDS011;5624;49.388;11.350;2022-12-11T07:38:47;21.57;;;13.00;;
11139;SDS011;5624;49.388;11.350;2022-12-11T07:41:13;21.07;;;12.63;;
11139;SDS011;5624;49.388;11.350;2022-12-11T07:43:40;23.03;;;13.07;;
11139;SDS011;5624;49.388;11.350;2022-12-11T07:46:07;23.40;;;14.77;;
11139;SDS011;5624;49.388;11.350;2022-12-11T07:48:40;25.30;;;15.10;;
11139;SDS011;5624;49.388;11.350;2022-12-11T07:51:07;27.07;;;19.13;;
11139;SDS011;5624;49.388;11.350;2022-12-11T07:53:39;28.33;;;19.60;;
11139;SDS011;5624;49.388;11.350;2022-12-11T07:56:05;28.80;;;19.20;;
11139;SDS011;5624;49.388;11.350;2022-12-11T07:58:31;24.53;;;16.83;;
11139;SDS011;5624;49.388;11.350;2022-12-11T08:00:57;22.13;;;16.70;;
11139;SDS011;5624;49.388;11.350;2022-12-11T08:03:23;24.47;;;17.63;;
11139;SDS011;5624;49.388;11.350;2022-12-11T08:05:49;23.63;;;16.17;;
11139;SDS011;5624;49.388;11.350;2022-12-11T08:08:16;23.07;;;16.53;;
11139;SDS011;5624;49.388;11.350;2022-12-11T08:10:43;24.60;;;16.13;;
11139;SDS011;5624;49.388;11.350;2022-12-11T08:13:09;22.93;;;16.37;;
11139;SDS011;5624;49.388;11.350;2022-12-11T08:15:35;22.87;;;16.63;;
11139;SDS011;5624;49.388;11.350;2022-12-11T08:18:01;23.50;;;16.53;;
11139;SDS011;5624;49.388;11.350;2022-12-11T08:20:27;24.03;;;17.53;;
11139;SDS011;5624;49.388;11.350;2022-12-11T08:22:52;23.63;;;17.17;;
11139;SDS011;5624;49.388;11.350;2022-12-11T08:25:18;23.70;;;13.77;;
11139;SDS011;5624;49.388;11.350;2022-12-11T08:27:44;22.10;;;13.23;;
11139;SDS011;5624;49.388;11.350;2022-12-11T08:30:09;20.40;;;12.60;;
11139;SDS011;5624;49.388;11.350;2022-12-11T08:32:35;16.87;;;10.33;;
11139;SDS011;5624;49.388;11.350;2022-12-11T08:35:01;19.07;;;11.40;;
11139;SDS011;5624;49.388;11.350;2022-12-11T08:37:27;17.83;;;11.43;;
11139;SDS011;5624;49.388;11.350;2022-12-11T08:39:53;15.63;;;10.00;;
11139;SDS011;5624;49.388;11.350;2022-12-11T08:42:19;18.90;;;14.33;;
11139;SDS011;5624;49.388;11.350;2022-12-11T08:44:45;19.67;;;13.00;;
11139;SDS011;5624;49.388;11.350;2022-12-11T08:47:10;16.87;;;13.03;;
11139;SDS011;5624;49.388;11.350;2022-12-11T08:49:36;16.13;;;12.77;;
11139;SDS011;5624;49.388;11.350;2022-12-11T08:52:03;16.93;;;12.93;;
11139;SDS011;5624;49.388;11.350;2022-12-11T08:54:29;18.37;;;14.10;;
11139;SDS011;5624;49.388;11.350;2022-12-11T08:56:55;15.73;;;9.73;;
11139;SDS011;5624;49.388;11.350;2022-12-11T08:59:21;15.60;;;9.87;;
11139;SDS011;5624;49.388;11.350;2022-12-11T09:01:50;15.77;;;9.30;;
11139;SDS011;5624;49.388;11.350;2022-12-11T09:04:16;15.87;;;9.63;;
11139;SDS011;5624;49.388;11.350;2022-12-11T09:06:42;15.40;;;9.63;;
11139;SDS011;5624;49.388;11.350;2022-12-11T09:09:07;18.33;;;12.97;;
11139;SDS011;5624;49.388;11.350;2022-12-11T09:11:34;15.60;;;9.83;;
11139;SDS011;5624;49.388;11.350;2022-12-11T09:14:02;14.97;;;9.80;;
11139;SDS011;5624;49.388;11.350;2022-12-11T09:16:29;16.73;;;10.50;;
11139;SDS011;5624;49.388;11.350;2022-12-11T09:18:56;14.20;;;9.10;;
11139;SDS011;5624;49.388;11.350;2022-12-11T09:21:25;16.63;;;11.10;;
11139;SDS011;5624;49.388;11.350;2022-12-11T09:23:53;16.90;;;9.93;;
11139;SDS011;5624;49.388;11.350;2022-12-11T09:26:20;15.07;;;9.37;;
11139;SDS011;5624;49.388;11.350;2022-12-11T09:28:48;15.03;;;9.90;;
11139;SDS011;5624;49.388;11.350;2022-12-11T09:31:22;17.03;;;9.67;;
11139;SDS011;5624;49.388;11.350;2022-12-11T09:33:50;13.33;;;9.40;;
11139;SDS011;5624;49.388;11.350;2022-12-11T09:36:18;14.23;;;9.13;;
11139;SDS011;5624;49.388;11.350;2022-12-11T09:38:44;12.50;;;8.03;;
11139;SDS011;5624;49.388;11.350;2022-12-11T09:46:57;12.77;;;6.80;;
11139;SDS011;5624;49.388;11.350;2022-12-11T09:49:34;11.47;;;7.33;;
11139;SDS011;5624;49.388;11.350;2022-12-11T09:52:14;12.87;;;8.03;;
11139;SDS011;5624;49.388;11.350;2022-12-11T09:55:31;11.37;;;7.27;;
11139;SDS011;5624;49.388;11.350;2022-12-11T10:00:08;10.97;;;8.20;;
11139;SDS011;5624;49.388;11.350;2022-12-11T10:05:49;12.87;;;7.27;;
11139;SDS011;5624;49.388;11.350;2022-12-11T10:08:49;11.00;;;7.00;;
11139;SDS011;5624;49.388;11.350;2022-12-11T10:17:01;14.47;;;8.77;;
11139;SDS011;5624;49.388;11.350;2022-12-11T10:19:47;11.40;;;7.57;;
11139;SDS011;5624;49.388;11.350;2022-12-11T10:22:20;13.63;;;8.13;;
11139;SDS011;5624;49.388;11.350;2022-12-11T10:27:23;13.73;;;8.23;;
11139;SDS011;5624;49.388;11.350;2022-12-11T10:35:23;14.67;;;9.37;;
11139;SDS011;5624;49.388;11.350;2022-12-11T10:37:57;13.27;;;8.50;;
11139;SDS011;5624;49.388;11.350;2022-12-11T10:40:38;16.80;;;11.33;;
11139;SDS011;5624;49.388;11.350;2022-12-11T10:43:06;15.03;;;12.10;;
11139;SDS011;5624;49.388;11.350;2022-12-11T10:45:32;16.17;;;12.73;;
11139;SDS011;5624;49.388;11.350;2022-12-11T10:48:31;16.03;;;12.67;;
11139;SDS011;5624;49.388;11.350;2022-12-11T10:50:57;14.90;;;11.83;;
11139;SDS011;5624;49.388;11.350;2022-12-11T10:53:26;14.33;;;11.03;;
11139;SDS011;5624;49.388;11.350;2022-12-11T10:55:53;14.60;;;9.87;;
11139;SDS011;5624;49.388;11.350;2022-12-11T10:58:20;15.83;;;12.10;;
11139;SDS011;5624;49.388;11.350;2022-12-11T11:06:18;18.37;;;13.07;;
11139;SDS011;5624;49.388;11.350;2022-12-11T11:08:46;19.47;;;10.20;;
11139;SDS011;5624;49.388;11.350;2022-12-11T11:16:49;17.07;;;12.30;;
11139;SDS011;5624;49.388;11.350;2022-12-11T11:19:28;15.27;;;11.03;;
11139;SDS011;5624;49.388;11.350;2022-12-11T11:21:57;13.23;;;8.97;;
11139;SDS011;5624;49.388;11.350;2022-12-11T11:26:59;15.10;;;10.87;;
11139;SDS011;5624;49.388;11.350;2022-12-11T11:29:28;15.73;;;11.90;;
11139;SDS011;5624;49.388;11.350;2022-12-11T11:31:58;13.87;;;8.57;;
11139;SDS011;5624;49.388;11.350;2022-12-11T11:34:37;11.70;;;7.87;;
11139;SDS011;5624;49.388;11.350;2022-12-11T11:37:03;13.50;;;8.10;;
11139;SDS011;5624;49.388;11.350;2022-12-11T11:39:32;13.73;;;8.33;;
11139;SDS011;5624;49.388;11.350;2022-12-11T11:44:39;11.83;;;7.37;;
11139;SDS011;5624;49.388;11.350;2022-12-11T11:47:15;12.80;;;8.43;;
11139;SDS011;5624;49.388;11.350;2022-12-11T11:52:48;13.07;;;8.23;;
11139;SDS011;5624;49.388;11.350;2022-12-11T12:00:40;13.27;;;10.37;;
11139;SDS011;5624;49.388;11.350;2022-12-11T12:03:10;15.07;;;10.37;;
11139;SDS011;5624;49.388;11.350;2022-12-11T12:11:33;13.17;;;7.63;;
11139;SDS011;5624;49.388;11.350;2022-12-11T12:14:30;13.07;;;7.07;;
11139;SDS011;5624;49.388;11.350;2022-12-11T12:17:24;12.07;;;6.90;;
11139;SDS011;5624;49.388;11.350;2022-12-11T12:26:03;13.87;;;7.93;;
11139;SDS011;5624;49.388;11.350;2022-12-11T12:34:38;13.60;;;8.67;;
11139;SDS011;5624;49.388;11.350;2022-12-11T12:45:06;13.43;;;10.43;;
11139;SDS011;5624;49.388;11.350;2022-12-11T12:47:38;13.33;;;9.57;;
11139;SDS011;5624;49.388;11.350;2022-12-11T12:50:28;13.67;;;9.57;;
11139;SDS011;5624;49.388;11.350;2022-12-11T12:52:57;12.60;;;9.33;;
11139;SDS011;5624;49.388;11.350;2022-12-11T12:55:27;13.13;;;7.90;;
11139;SDS011;5624;49.388;11.350;2022-12-11T13:00:43;15.13;;;11.20;;
11139;SDS011;5624;49.388;11.350;2022-12-11T13:05:42;14.23;;;11.30;;
11139;SDS011;5624;49.388;11.350;2022-12-11T13:08:22;15.73;;;11.23;;
11139;SDS011;5624;49.388;11.350;2022-12-11T13:10:57;15.07;;;11.00;;
11139;SDS011;5624;49.388;11.350;2022-12-11T13:16:39;11.27;;;7.00;;
11139;SDS011;5624;49.388;11.350;2022-12-11T13:21:57;15.30;;;8.97;;
11139;SDS011;5624;49.388;11.350;2022-12-11T13:24:29;15.20;;;8.70;;
11139;SDS011;5624;49.388;11.350;2022-12-11T13:27:07;14.67;;;8.83;;
11139;SDS011;5624;49.388;11.350;2022-12-11T13:29:47;15.07;;;10.33;;
11139;SDS011;5624;49.388;11.350;2022-12-11T13:34:42;11.53;;;8.73;;
11139;SDS011;5624;49.388;11.350;2022-12-11T13:37:34;11.90;;;8.17;;
11139;SDS011;5624;49.388;11.350;2022-12-11T13:40:06;13.23;;;8.07;;
11139;SDS011;5624;49.388;11.350;2022-12-11T13:42:46;11.73;;;7.20;;
11139;SDS011;5624;49.388;11.350;2022-12-11T13:45:18;12.30;;;7.87;;
11139;SDS011;5624;49.388;11.350;2022-12-11T13:47:47;11.90;;;7.77;;
11139;SDS011;5624;49.388;11.350;2022-12-11T13:50:15;11.20;;;7.13;;
11139;SDS011;5624;49.388;11.350;2022-12-11T13:52:54;12.53;;;7.60;;
11139;SDS011;5624;49.388;11.350;2022-12-11T13:55:26;13.13;;;9.20;;
11139;SDS011;5624;49.388;11.350;2022-12-11T13:57:56;12.20;;;9.20;;
11139;SDS011;5624;49.388;11.350;2022-12-11T14:00:24;9.73;;;6.53;;
11139;SDS011;5624;49.388;11.350;2022-12-11T14:02:56;10.43;;;6.73;;
11139;SDS011;5624;49.388;11.350;2022-12-11T14:05:26;9.37;;;6.80;;
11139;SDS011;5624;49.388;11.350;2022-12-11T14:07:53;9.90;;;7.63;;
11139;SDS011;5624;49.388;11.350;2022-12-11T14:10:22;9.83;;;6.77;;
11139;SDS011;5624;49.388;11.350;2022-12-11T14:12:55;7.27;;;5.17;;
11139;SDS011;5624;49.388;11.350;2022-12-11T14:15:21;8.70;;;5.80;;
11139;SDS011;5624;49.388;11.350;2022-12-11T14:17:47;7.03;;;4.67;;
11139;SDS011;5624;49.388;11.350;2022-12-11T14:20:17;9.13;;;5.37;;
11139;SDS011;5624;49.388;11.350;2022-12-11T14:22:44;9.43;;;5.73;;
11139;SDS011;5624;49.388;11.350;2022-12-11T14:25:20;8.47;;;5.80;;
11139;SDS011;5624;49.388;11.350;2022-12-11T14:27:49;9.87;;;5.93;;
11139;SDS011;5624;49.388;11.350;2022-12-11T14:30:24;10.40;;;5.80;;
11139;SDS011;5624;49.388;11.350;2022-12-11T14:32:53;10.07;;;6.27;;
11139;SDS011;5624;49.388;11.350;2022-12-11T14:35:33;8.53;;;5.87;;
11139;SDS011;5624;49.388;11.350;2022-12-11T14:38:04;10.70;;;5.13;;
11139;SDS011;5624;49.388;11.350;2022-12-11T14:40:37;9.57;;;5.33;;
11139;SDS011;5624;49.388;11.350;2022-12-11T14:43:09;8.43;;;5.40;;
11139;SDS011;5624;49.388;11.350;2022-12-11T14:45:43;8.37;;;6.77;;
11139;SDS011;5624;49.388;11.350;2022-12-11T14:48:16;9.73;;;6.87;;
11139;SDS011;5624;49.388;11.350;2022-12-11T14:50:48;8.47;;;6.37;;
11139;SDS011;5624;49.388;11.350;2022-12-11T14:53:21;8.80;;;6.60;;
11139;SDS011;5624;49.388;11.350;2022-12-11T14:55:53;8.77;;;6.43;;
11139;SDS011;5624;49.388;11.350;2022-12-11T14:58:23;9.00;;;6.73;;
11139;SDS011;5624;49.388;11.350;2022-12-11T15:00:57;9.80;;;6.93;;
11139;SDS011;5624;49.388;11.350;2022-12-11T15:03:32;10.07;;;6.90;;
11139;SDS011;5624;49.388;11.350;2022-12-11T15:06:17;9.33;;;6.53;;
11139;SDS011;5624;49.388;11.350;2022-12-11T15:08:48;10.30;;;6.87;;
11139;SDS011;5624;49.388;11.350;2022-12-11T15:11:14;11.93;;;7.30;;
11139;SDS011;5624;49.388;11.350;2022-12-11T15:13:50;10.13;;;7.13;;
11139;SDS011;5624;49.388;11.350;2022-12-11T15:16:24;9.90;;;7.37;;
11139;SDS011;5624;49.388;11.350;2022-12-11T15:18:52;9.17;;;6.60;;
11139;SDS011;5624;49.388;11.350;2022-12-11T15:21:26;10.37;;;7.10;;
11139;SDS011;5624;49.388;11.350;2022-12-11T15:23:54;10.67;;;7.67;;
11139;SDS011;5624;49.388;11.350;2022-12-11T15:29:25;11.77;;;8.33;;
11139;SDS011;5624;49.388;11.350;2022-12-11T15:34:58;11.73;;;8.73;;
11139;SDS011;5624;49.388;11.350;2022-12-11T15:39:54;10.00;;;7.50;;
11139;SDS011;5624;49.388;11.350;2022-12-11T15:42:25;11.07;;;9.07;;
11139;SDS011;5624;49.388;11.350;2022-12-11T15:44:56;12.13;;;8.37;;
11139;SDS011;5624;49.388;11.350;2022-12-11T15:47:24;20.57;;;9.43;;
11139;SDS011;5624;49.388;11.350;2022-12-11T15:49:57;11.37;;;9.23;;
11139;SDS011;5624;49.388;11.350;2022-12-11T15:52:24;11.20;;;8.23;;
11139;SDS011;5624;49.388;11.350;2022-12-11T15:54:50;12.70;;;8.67;;
11139;SDS011;5624;49.388;11.350;2022-12-11T15:57:16;9.83;;;7.90;;
11139;SDS011;5624;49.388;11.350;2022-12-11T15:59:45;11.60;;;8.30;;
11139;SDS011;5624;49.388;11.350;2022-12-11T16:02:15;10.80;;;8.07;;
11139;SDS011;5624;49.388;11.350;2022-12-11T16:04:41;11.77;;;8.40;;
11139;SDS011;5624;49.388;11.350;2022-12-11T16:07:23;11.10;;;6.80;;
11139;SDS011;5624;49.388;11.350;2022-12-11T16:09:50;13.10;;;9.00;;
11139;SDS011;5624;49.388;11.350;2022-12-11T16:12:16;13.57;;;8.87;;
11139;SDS011;5624;49.388;11.350;2022-12-11T16:14:43;12.33;;;9.07;;
11139;SDS011;5624;49.388;11.350;2022-12-11T16:17:10;12.90;;;8.43;;
11139;SDS011;5624;49.388;11.350;2022-12-11T16:19:38;11.33;;;8.90;;
11139;SDS011;5624;49.388;11.350;2022-12-11T16:22:05;12.03;;;9.07;;
11139;SDS011;5624;49.388;11.350;2022-12-11T16:24:32;13.90;;;8.93;;
11139;SDS011;5624;49.388;11.350;2022-12-11T16:26:58;13.10;;;9.50;;
11139;SDS011;5624;49.388;11.350;2022-12-11T16:29:24;13.50;;;9.63;;
11139;SDS011;5624;49.388;11.350;2022-12-11T16:31:50;15.07;;;9.43;;
11139;SDS011;5624;49.388;11.350;2022-12-11T16:34:15;12.70;;;9.53;;
11139;SDS011;5624;49.388;11.350;2022-12-11T16:36:41;14.63;;;9.73;;
11139;SDS011;5624;49.388;11.350;2022-12-11T16:39:09;12.33;;;8.93;;
11139;SDS011;5624;49.388;11.350;2022-12-11T16:41:36;12.27;;;9.40;;